Time;durP1;ratioP1;P1;durP2;ratioP2;P2;SDS_P1;SDS_P2;PMS_P1;PMS_P2;Temp;Humidity;BMP_temperature;BMP_pressure;BME280_temperature;BME280_humidity;BME280_pressure;Samples;Min_cycle;Max_cycle;Signal;HPM_P1;HPM_P2
2022/08/24 00:01:06;;;;;;;4.70;3.10;;;24.30;60.80;;;;;;5050718;28;20028;-60
2022/08/24 00:03:33;;;;;;;4.60;3.30;;;24.30;60.60;;;;;;5052642;28;20025;-60
2022/08/24 00:05:59;;;;;;;4.82;3.30;;;24.30;60.40;;;;;;5049866;28;20289;-60
2022/08/24 00:08:25;;;;;;;3.95;3.00;;;24.20;60.50;;;;;;5052880;28;20029;-60
2022/08/24 00:10:51;;;;;;;4.15;2.97;;;24.20;60.40;;;;;;5054188;28;20024;-60
2022/08/24 00:13:17;;;;;;;4.85;2.90;;;24.20;60.30;;;;;;5053140;28;20033;-59
2022/08/24 00:15:44;;;;;;;3.08;2.60;;;24.20;60.20;;;;;;5051372;28;20067;-61
2022/08/24 00:18:10;;;;;;;3.05;2.67;;;24.10;60.00;;;;;;5054307;28;20056;-61
2022/08/24 00:20:36;;;;;;;3.78;2.70;;;24.10;60.00;;;;;;5046945;28;20028;-61
2022/08/24 00:23:02;;;;;;;3.78;2.70;;;24.10;60.10;;;;;;5055769;28;20389;-60
2022/08/24 00:25:28;;;;;;;3.50;2.90;;;24.20;60.10;;;;;;5053345;28;20033;-61
2022/08/24 00:27:53;;;;;;;3.72;2.90;;;24.10;59.70;;;;;;5054426;28;20444;-58
2022/08/24 00:30:20;;;;;;;3.55;2.75;;;24.10;59.60;;;;;;5054263;28;20052;-60
2022/08/24 00:32:48;;;;;;;6.32;2.97;;;24.10;59.60;;;;;;5055053;28;20028;-60
2022/08/24 00:35:17;;;;;;;3.60;2.88;;;24.10;59.60;;;;;;5050409;28;20077;-59
2022/08/24 00:37:43;;;;;;;3.72;2.97;;;24.00;59.60;;;;;;5053972;28;20409;-60
2022/08/24 00:40:27;;;;;;;4.75;3.00;;;24.00;59.60;;;;;;5053754;28;20108;-61
2022/08/24 00:42:54;;;;;;;4.25;2.90;;;24.00;59.70;;;;;;5049459;28;20028;-61
2022/08/24 00:45:22;;;;;;;5.00;2.80;;;24.00;59.60;;;;;;5051691;28;20374;-61
2022/08/24 00:47:50;;;;;;;3.97;2.95;;;24.00;59.40;;;;;;5050837;28;20020;-60
2022/08/24 00:50:22;;;;;;;3.08;2.50;;;24.00;59.70;;;;;;5052285;28;20021;-61
2022/08/24 00:52:56;;;;;;;3.45;2.85;;;24.00;59.60;;;;;;5053109;28;20124;-61
2022/08/24 00:55:31;;;;;;;2.92;2.55;;;24.00;59.70;;;;;;5053552;28;20448;-62
2022/08/24 00:58:01;;;;;;;4.05;2.72;;;24.00;59.90;;;;;;5048434;28;20053;-61
2022/08/24 01:00:33;;;;;;;3.90;2.67;;;23.90;59.90;;;;;;5051104;28;20037;-62
2022/08/24 01:03:03;;;;;;;2.90;2.50;;;23.90;59.70;;;;;;5051406;28;20397;-62
2022/08/24 01:05:33;;;;;;;3.25;2.90;;;23.90;60.00;;;;;;5047617;28;20056;-61
2022/08/24 01:08:00;;;;;;;2.90;2.60;;;23.90;59.90;;;;;;5046837;28;20511;-62
2022/08/24 01:10:29;;;;;;;3.33;2.60;;;23.90;59.90;;;;;;5053846;28;20017;-60
2022/08/24 01:12:59;;;;;;;3.33;2.60;;;23.90;60.10;;;;;;5052290;28;20052;-60
2022/08/24 01:15:25;;;;;;;3.95;2.78;;;23.90;60.30;;;;;;5052209;28;20115;-62
2022/08/24 01:20:35;;;;;;;3.33;2.70;;;23.80;60.30;;;;;;5053267;28;20031;-60
2022/08/24 01:23:23;;;;;;;3.40;2.55;;;23.80;60.10;;;;;;5049329;28;20038;-61
2022/08/24 01:25:49;;;;;;;3.78;2.53;;;23.80;60.20;;;;;;5049838;28;20468;-60
2022/08/24 01:28:19;;;;;;;2.58;2.35;;;23.80;60.00;;;;;;5053041;28;20534;-62
2022/08/24 01:30:45;;;;;;;2.60;2.30;;;23.80;60.00;;;;;;5053600;28;20017;-61
2022/08/24 01:33:22;;;;;;;2.72;2.13;;;23.70;60.00;;;;;;5051351;28;20021;-61
2022/08/24 01:35:48;;;;;;;3.53;2.75;;;23.70;60.00;;;;;;5052381;28;20474;-60
2022/08/24 01:38:14;;;;;;;3.38;2.70;;;23.70;60.20;;;;;;5051029;28;20059;-62
2022/08/24 01:40:51;;;;;;;3.30;2.53;;;23.70;60.30;;;;;;5051003;28;20113;-61
2022/08/24 01:43:17;;;;;;;2.90;2.60;;;23.70;60.20;;;;;;5047283;28;20431;-60
2022/08/24 01:45:43;;;;;;;2.55;2.35;;;23.70;60.50;;;;;;5043400;28;20025;-61
2022/08/24 01:48:09;;;;;;;2.80;2.53;;;23.70;60.50;;;;;;5044405;28;20025;-61
2022/08/24 01:50:35;;;;;;;2.85;2.42;;;23.70;60.40;;;;;;5060079;28;20454;-61
2022/08/24 01:53:03;;;;;;;3.03;2.42;;;23.60;60.40;;;;;;5050607;28;20107;-61
2022/08/24 01:55:29;;;;;;;2.75;2.45;;;23.60;60.40;;;;;;5047931;28;20032;-61
2022/08/24 01:57:55;;;;;;;3.15;2.00;;;23.60;60.30;;;;;;5050097;28;20120;-62
2022/08/24 02:00:21;;;;;;;3.00;2.67;;;23.60;60.20;;;;;;5052749;28;20108;-62
2022/08/24 02:02:47;;;;;;;2.65;2.42;;;23.60;60.10;;;;;;5051431;28;20029;-62
2022/08/24 02:05:14;;;;;;;3.67;2.53;;;23.60;60.20;;;;;;5053305;28;20487;-62
2022/08/24 02:07:40;;;;;;;3.20;2.53;;;23.60;60.20;;;;;;5049310;28;20021;-62
2022/08/24 02:10:09;;;;;;;3.67;2.78;;;23.60;60.30;;;;;;5051948;28;20092;-62
2022/08/24 02:12:36;;;;;;;3.20;2.80;;;23.60;60.50;;;;;;5048617;28;20366;-61
2022/08/24 02:15:05;;;;;;;4.63;2.63;;;23.60;60.40;;;;;;5050975;28;20365;-62
2022/08/24 02:17:30;;;;;;;2.50;2.30;;;23.50;60.40;;;;;;5048508;28;20521;-62
2022/08/24 02:19:56;;;;;;;2.60;2.35;;;23.50;60.50;;;;;;5051394;28;20048;-61
2022/08/24 02:22:22;;;;;;;3.05;2.47;;;23.50;60.50;;;;;;5051983;28;20112;-61
2022/08/24 02:24:48;;;;;;;2.50;2.30;;;23.50;60.40;;;;;;5052391;28;20518;-61
2022/08/24 02:27:15;;;;;;;3.75;2.67;;;23.50;60.30;;;;;;5050971;28;20037;-62
2022/08/24 02:29:41;;;;;;;2.60;2.30;;;23.50;60.20;;;;;;5052764;28;20021;-60
2022/08/24 02:32:07;;;;;;;2.70;2.45;;;23.50;60.40;;;;;;5044604;28;20025;-61
2022/08/24 02:34:34;;;;;;;3.20;2.40;;;23.50;60.30;;;;;;5051694;28;20047;-60
2022/08/24 02:36:59;;;;;;;3.33;2.70;;;23.50;60.10;;;;;;5044599;28;20392;-61
2022/08/24 02:39:25;;;;;;;3.47;2.63;;;23.50;60.10;;;;;;5052897;28;20032;-61
2022/08/24 02:41:52;;;;;;;2.50;2.30;;;23.40;60.10;;;;;;5051293;28;20035;-60
2022/08/24 02:44:18;;;;;;;3.33;2.60;;;23.40;60.40;;;;;;5052009;28;20037;-60
2022/08/24 02:46:43;;;;;;;3.20;2.90;;;23.40;60.40;;;;;;5051113;28;20025;-61
2022/08/24 02:49:10;;;;;;;3.08;2.40;;;23.40;60.50;;;;;;5048718;28;20078;-61
2022/08/24 02:51:36;;;;;;;3.17;2.50;;;23.40;60.70;;;;;;5048958;28;20092;-59
2022/08/24 02:54:04;;;;;;;3.33;2.58;;;23.30;60.40;;;;;;5052438;28;20020;-60
2022/08/24 02:56:30;;;;;;;3.22;2.70;;;23.40;60.60;;;;;;5049584;28;20488;-60
2022/08/24 02:58:57;;;;;;;2.50;2.30;;;23.40;60.80;;;;;;5050808;28;20487;-60
2022/08/24 03:01:23;;;;;;;3.22;2.63;;;23.40;60.60;;;;;;5051662;28;20029;-61
2022/08/24 03:03:49;;;;;;;3.10;2.63;;;23.40;60.70;;;;;;5051477;28;20108;-61
2022/08/24 03:06:15;;;;;;;2.70;2.30;;;23.40;60.90;;;;;;5048691;28;20112;-59
2022/08/24 03:08:40;;;;;;;2.80;2.55;;;23.40;61.10;;;;;;5039631;28;20037;-60
2022/08/24 03:11:07;;;;;;;3.22;2.50;;;23.40;61.10;;;;;;5051513;28;20057;-60
2022/08/24 03:13:33;;;;;;;3.28;2.50;;;23.40;61.30;;;;;;5048138;28;20029;-61
2022/08/24 03:15:59;;;;;;;3.72;2.60;;;23.40;61.50;;;;;;5050548;28;20029;-60
2022/08/24 03:18:26;;;;;;;3.08;2.42;;;23.40;61.50;;;;;;5049183;28;20039;-61
2022/08/24 03:20:53;;;;;;;3.40;2.67;;;23.40;61.60;;;;;;5051539;28;20396;-61
2022/08/24 03:23:19;;;;;;;2.70;2.50;;;23.40;61.50;;;;;;5054600;28;20404;-61
2022/08/24 03:25:45;;;;;;;4.65;2.90;;;23.40;61.30;;;;;;5039284;28;20104;-61
2022/08/24 03:28:11;;;;;;;2.97;2.55;;;23.40;61.60;;;;;;5048059;28;20030;-60
2022/08/24 03:30:38;;;;;;;4.05;2.55;;;23.40;61.60;;;;;;5049559;28;20025;-61
2022/08/24 03:33:05;;;;;;;3.13;2.38;;;23.40;61.60;;;;;;5046109;28;20040;-61
2022/08/24 03:35:31;;;;;;;2.92;2.53;;;23.50;61.50;;;;;;5048178;28;20072;-61
2022/08/24 03:37:57;;;;;;;3.05;2.50;;;23.50;61.20;;;;;;5048032;28;20033;-60
2022/08/24 03:40:22;;;;;;;3.63;2.33;;;23.50;61.00;;;;;;5049502;28;20029;-60
2022/08/24 03:42:49;;;;;;;3.38;2.80;;;23.50;60.90;;;;;;5048942;28;20409;-60
2022/08/24 03:45:15;;;;;;;2.83;2.58;;;23.50;60.80;;;;;;5050982;28;20041;-60
2022/08/24 03:47:41;;;;;;;3.85;2.50;;;23.50;60.90;;;;;;5050556;28;20028;-60
2022/08/24 03:50:08;;;;;;;4.40;2.75;;;23.50;60.90;;;;;;5049841;28;20059;-61
2022/08/24 03:52:34;;;;;;;3.60;2.78;;;23.60;60.80;;;;;;5050552;28;20032;-60
2022/08/24 03:55:04;;;;;;;2.30;2.08;;;23.60;60.60;;;;;;5051874;28;20021;-60
2022/08/24 03:57:30;;;;;;;3.53;2.50;;;23.60;60.50;;;;;;5049140;28;20448;-61
2022/08/24 03:59:56;;;;;;;3.05;2.75;;;23.60;60.40;;;;;;5048548;28;20048;-59
2022/08/24 04:02:22;;;;;;;3.70;2.30;;;23.60;60.30;;;;;;5048867;28;20032;-60
2022/08/24 04:04:47;;;;;;;3.08;2.70;;;23.70;60.10;;;;;;5054779;28;20025;-60
2022/08/24 04:07:13;;;;;;;2.90;2.60;;;23.70;60.10;;;;;;5050579;28;20124;-60
2022/08/24 04:09:39;;;;;;;2.85;2.58;;;23.70;60.10;;;;;;5054079;28;20029;-61
2022/08/24 04:12:05;;;;;;;3.42;2.75;;;23.70;60.00;;;;;;5054170;28;20035;-60
2022/08/24 04:14:31;;;;;;;2.75;2.42;;;23.80;60.10;;;;;;5054861;28;20090;-60
2022/08/24 04:16:56;;;;;;;3.15;2.65;;;23.90;60.00;;;;;;5050768;28;20063;-61
2022/08/24 04:19:22;;;;;;;2.60;2.40;;;23.90;59.90;;;;;;5058959;28;20057;-60
2022/08/24 04:21:48;;;;;;;2.75;2.35;;;24.00;59.80;;;;;;5047580;28;20086;-59
2022/08/24 04:24:13;;;;;;;2.53;2.33;;;24.00;59.80;;;;;;5057575;28;20044;-59
2022/08/24 04:26:40;;;;;;;3.17;2.40;;;24.00;59.70;;;;;;5056061;28;20071;-59
2022/08/24 04:29:08;;;;;;;2.67;2.47;;;24.10;59.70;;;;;;5052423;28;20067;-59
2022/08/24 04:31:38;;;;;;;3.55;2.83;;;24.10;59.80;;;;;;5053387;28;20025;-60
2022/08/24 04:34:05;;;;;;;2.70;2.50;;;24.20;59.90;;;;;;5052329;28;20392;-59
2022/08/24 04:36:31;;;;;;;2.60;2.17;;;24.20;59.60;;;;;;5053879;28;20104;-58
2022/08/24 04:38:57;;;;;;;2.97;2.42;;;24.20;59.60;;;;;;5051106;28;20029;-59
2022/08/24 04:41:23;;;;;;;3.97;3.03;;;24.20;59.80;;;;;;5028909;28;20086;-59
2022/08/24 04:43:49;;;;;;;4.57;2.70;;;24.20;59.90;;;;;;5052960;28;20032;-60
2022/08/24 04:46:17;;;;;;;2.83;2.53;;;24.30;59.80;;;;;;5054599;28;20473;-58
2022/08/24 04:48:45;;;;;;;2.63;2.42;;;24.30;59.90;;;;;;5052599;28;20024;-58
2022/08/24 04:51:12;;;;;;;3.00;2.33;;;24.30;59.80;;;;;;5052503;28;20054;-59
2022/08/24 04:53:39;;;;;;;2.70;2.50;;;24.50;59.90;;;;;;5048519;28;20021;-58
2022/08/24 04:56:11;;;;;;;3.20;2.90;;;24.50;59.90;;;;;;5054173;28;20021;-59
2022/08/24 04:58:38;;;;;;;3.92;2.95;;;24.50;59.70;;;;;;5049131;28;20036;-60
2022/08/24 05:01:25;;;;;;;3.47;2.85;;;24.50;59.40;;;;;;5050022;28;20354;-58
2022/08/24 05:03:53;;;;;;;3.20;2.83;;;24.50;59.20;;;;;;5049269;28;20033;-58
2022/08/24 05:06:20;;;;;;;3.22;2.78;;;24.50;59.20;;;;;;5053481;28;20063;-58
2022/08/24 05:08:47;;;;;;;3.90;2.92;;;24.50;59.30;;;;;;5051548;28;20055;-58
2022/08/24 05:11:13;;;;;;;3.17;2.70;;;24.50;59.30;;;;;;5053652;28;20013;-58
2022/08/24 05:13:39;;;;;;;2.97;2.60;;;24.50;59.10;;;;;;5048560;28;20020;-58
2022/08/24 05:16:11;;;;;;;3.80;2.72;;;24.50;59.10;;;;;;5048415;28;20028;-59
2022/08/24 05:18:37;;;;;;;2.88;2.55;;;24.60;59.20;;;;;;5056473;28;20052;-58
2022/08/24 05:21:07;;;;;;;3.90;2.90;;;24.70;59.40;;;;;;5052171;28;20025;-58
2022/08/24 05:23:34;;;;;;;3.67;2.90;;;25.00;59.20;;;;;;5052698;28;20473;-58
2022/08/24 05:26:09;;;;;;;4.57;2.95;;;25.10;58.50;;;;;;5044605;28;20037;-58
2022/08/24 05:28:35;;;;;;;4.13;2.75;;;25.20;58.10;;;;;;5051013;28;20079;-59
2022/08/24 05:31:33;;;;;;;3.67;3.17;;;25.20;58.00;;;;;;5048277;28;20029;-59
2022/08/24 05:34:01;;;;;;;3.90;2.50;;;25.20;57.80;;;;;;4989313;28;20063;-60
2022/08/24 05:36:33;;;;;;;3.72;2.67;;;25.20;57.90;;;;;;5051500;28;20108;-58
2022/08/24 05:39:01;;;;;;;2.83;2.60;;;25.30;58.00;;;;;;5048773;28;20610;-58
2022/08/24 05:41:27;;;;;;;4.18;3.00;;;25.30;58.00;;;;;;5049073;28;20025;-60
2022/08/24 05:43:53;;;;;;;4.85;3.13;;;25.30;57.90;;;;;;5026843;28;20029;-58
2022/08/24 05:46:19;;;;;;;3.35;2.97;;;25.30;58.00;;;;;;5047693;28;20040;-59
2022/08/24 05:48:45;;;;;;;3.67;3.00;;;25.30;58.30;;;;;;5049812;28;20040;-59
2022/08/24 05:51:11;;;;;;;4.15;3.40;;;25.20;58.10;;;;;;5049736;28;20025;-59
2022/08/24 05:53:38;;;;;;;3.70;2.90;;;25.10;58.00;;;;;;5046724;28;20552;-60
2022/08/24 05:56:10;;;;;;;3.17;2.88;;;25.10;58.40;;;;;;5050005;28;20579;-58
2022/08/24 05:58:37;;;;;;;3.78;2.92;;;25.00;58.70;;;;;;5047577;28;20108;-58
2022/08/24 06:01:10;;;;;;;4.22;3.10;;;25.00;58.90;;;;;;5049427;28;20033;-60
2022/08/24 06:03:37;;;;;;;6.03;3.15;;;25.10;58.80;;;;;;5044600;28;20699;-59
2022/08/24 06:06:06;;;;;;;4.55;3.22;;;25.00;58.60;;;;;;5055358;28;20031;-59
2022/08/24 06:08:37;;;;;;;3.90;3.30;;;25.10;58.90;;;;;;5052020;28;20025;-60
2022/08/24 06:11:04;;;;;;;4.75;3.25;;;25.10;58.70;;;;;;5043463;28;20025;-58
2022/08/24 06:13:30;;;;;;;5.28;3.42;;;25.10;58.40;;;;;;5048233;28;20029;-59
2022/08/24 06:16:08;;;;;;;4.10;2.88;;;25.20;58.40;;;;;;5054354;28;20033;-59
2022/08/24 06:18:34;;;;;;;4.25;3.00;;;25.20;58.40;;;;;;5061309;28;20068;-58
2022/08/24 06:21:09;;;;;;;3.35;2.90;;;25.20;58.30;;;;;;5051668;28;20108;-60
2022/08/24 06:23:35;;;;;;;4.53;3.47;;;25.20;58.40;;;;;;5051133;28;20025;-60
2022/08/24 06:28:46;;;;;;;4.97;3.55;;;25.20;58.40;;;;;;5051234;28;20027;-59
2022/08/24 06:31:12;;;;;;;3.50;3.00;;;25.10;58.30;;;;;;5037384;28;20033;-58
2022/08/24 06:33:38;;;;;;;3.28;2.92;;;25.20;58.40;;;;;;5049645;28;20041;-58
2022/08/24 06:36:05;;;;;;;4.07;2.70;;;25.20;58.40;;;;;;5052324;28;20059;-58
2022/08/24 06:38:30;;;;;;;7.18;3.30;;;25.20;58.60;;;;;;5051812;28;20029;-59
2022/08/24 06:40:56;;;;;;;4.18;3.03;;;25.20;58.70;;;;;;5052260;28;20390;-59
2022/08/24 06:43:23;;;;;;;5.78;3.50;;;25.20;58.70;;;;;;5049963;28;20039;-59
2022/08/24 06:45:49;;;;;;;5.40;3.33;;;25.30;59.10;;;;;;5051590;28;20029;-58
2022/08/24 06:48:15;;;;;;;4.65;3.33;;;25.40;59.10;;;;;;5051896;28;20024;-57
2022/08/24 06:50:41;;;;;;;4.57;3.20;;;25.40;59.10;;;;;;5047786;28;20017;-58
2022/08/24 06:53:07;;;;;;;6.43;3.15;;;25.40;59.10;;;;;;5046726;28;20025;-62
2022/08/24 06:55:33;;;;;;;4.43;3.20;;;25.50;59.30;;;;;;5045614;28;20036;-58
2022/08/24 06:57:59;;;;;;;4.80;2.92;;;25.50;59.40;;;;;;5049146;28;20029;-59
2022/08/24 07:00:25;;;;;;;7.57;3.17;;;25.60;60.10;;;;;;5051899;28;20021;-58
2022/08/24 07:02:51;;;;;;;4.88;3.25;;;25.60;59.10;;;;;;5041157;28;20025;-59
2022/08/24 07:05:17;;;;;;;5.25;3.33;;;25.60;59.00;;;;;;5048284;28;20029;-59
2022/08/24 07:07:42;;;;;;;3.88;2.88;;;25.70;58.90;;;;;;5046292;28;20040;-58
2022/08/24 07:10:09;;;;;;;6.60;3.17;;;25.70;58.60;;;;;;5043868;28;20021;-58
2022/08/24 07:12:35;;;;;;;5.03;3.33;;;25.70;58.40;;;;;;5051109;28;20029;-60
2022/08/24 07:15:03;;;;;;;3.92;2.92;;;25.80;58.60;;;;;;5052686;28;21549;-58
2022/08/24 07:17:28;;;;;;;7.72;3.40;;;25.80;58.40;;;;;;5047503;28;20032;-58
2022/08/24 07:19:54;;;;;;;3.88;3.10;;;25.80;58.50;;;;;;5052113;28;20025;-58
2022/08/24 07:22:20;;;;;;;4.63;3.08;;;25.80;58.60;;;;;;5049406;28;20064;-59
2022/08/24 07:24:46;;;;;;;5.68;3.20;;;25.80;58.60;;;;;;5041368;28;20025;-58
2022/08/24 07:27:12;;;;;;;6.70;3.42;;;25.80;58.60;;;;;;5045400;28;20092;-58
2022/08/24 07:29:39;;;;;;;7.10;3.30;;;25.80;58.30;;;;;;5048592;28;20109;-58
2022/08/24 07:32:05;;;;;;;3.47;2.40;;;25.90;58.40;;;;;;5045719;28;20017;-58
2022/08/24 07:34:31;;;;;;;5.03;2.50;;;25.90;58.60;;;;;;5049413;28;20043;-58
2022/08/24 07:36:59;;;;;;;6.63;3.00;;;25.90;58.70;;;;;;5044805;28;20021;-58
2022/08/24 07:39:26;;;;;;;3.90;2.97;;;25.90;58.70;;;;;;5056628;28;20434;-59
2022/08/24 07:41:51;;;;;;;5.05;2.70;;;26.00;58.60;;;;;;5051483;28;20113;-59
2022/08/24 07:44:17;;;;;;;4.75;3.00;;;26.00;58.30;;;;;;5050705;28;20124;-59
2022/08/24 07:46:43;;;;;;;5.57;2.78;;;26.00;58.40;;;;;;5048873;28;20420;-58
2022/08/24 07:49:11;;;;;;;4.10;2.75;;;26.00;57.80;;;;;;5055724;28;20021;-60
2022/08/24 07:51:37;;;;;;;4.68;2.58;;;26.00;57.90;;;;;;5043498;28;20036;-58
2022/08/24 07:54:03;;;;;;;5.93;3.00;;;26.00;57.80;;;;;;5052852;28;20021;-60
2022/08/24 07:56:29;;;;;;;5.38;2.63;;;26.00;57.80;;;;;;5054897;28;20442;-59
2022/08/24 07:58:54;;;;;;;4.07;2.53;;;26.00;57.80;;;;;;5050051;28;20025;-59
2022/08/24 08:01:21;;;;;;;5.75;2.95;;;26.10;57.80;;;;;;5046050;28;20037;-59
2022/08/24 08:03:47;;;;;;;5.03;2.67;;;26.10;57.80;;;;;;5051598;28;20044;-60
2022/08/24 08:06:12;;;;;;;3.80;2.50;;;26.10;57.80;;;;;;5055994;28;20057;-58
2022/08/24 08:08:40;;;;;;;4.85;2.50;;;26.10;57.70;;;;;;5052231;28;20499;-59
2022/08/24 08:11:07;;;;;;;3.25;2.10;;;26.10;57.90;;;;;;5055020;28;20021;-59
2022/08/24 08:13:33;;;;;;;2.85;2.38;;;26.10;58.30;;;;;;5052249;28;20456;-59
2022/08/24 08:15:59;;;;;;;3.53;2.60;;;26.20;58.40;;;;;;5056312;28;20489;-59
2022/08/24 08:18:26;;;;;;;5.43;2.40;;;26.20;58.40;;;;;;5053876;28;20104;-60
2022/08/24 08:20:52;;;;;;;4.35;2.47;;;26.30;58.40;;;;;;5050333;28;20033;-58
2022/08/24 08:26:03;;;;;;;4.45;2.70;;;26.30;57.70;;;;;;5055203;28;20075;-58
2022/08/24 08:28:31;;;;;;;6.32;2.95;;;26.30;57.20;;;;;;5052608;28;20021;-58
2022/08/24 08:30:59;;;;;;;3.63;2.55;;;26.30;57.20;;;;;;5052515;28;20374;-59
2022/08/24 08:33:25;;;;;;;3.92;2.72;;;26.30;56.80;;;;;;5053933;28;20031;-60
2022/08/24 08:35:57;;;;;;;4.53;2.80;;;26.30;56.90;;;;;;5055091;28;20032;-59
2022/08/24 08:38:23;;;;;;;3.95;2.72;;;26.30;56.70;;;;;;5054296;28;20063;-59
2022/08/24 08:41:16;;;;;;;3.00;2.35;;;26.30;56.70;;;;;;5050301;28;20064;-59
2022/08/24 08:43:56;;;;;;;6.07;3.03;;;26.30;56.50;;;;;;5050658;28;20025;-59
2022/08/24 08:46:46;;;;;;;2.78;2.53;;;26.30;56.60;;;;;;5053079;28;20033;-59
2022/08/24 08:49:37;;;;;;;3.67;2.60;;;26.30;56.70;;;;;;5050939;28;20859;-58
2022/08/24 08:52:08;;;;;;;3.88;2.58;;;26.30;56.40;;;;;;5045658;28;20473;-59
2022/08/24 08:54:43;;;;;;;4.25;2.28;;;26.40;56.50;;;;;;5053609;28;20074;-59
2022/08/24 08:57:44;;;;;;;2.60;2.13;;;26.30;56.30;;;;;;5047965;28;20111;-59
2022/08/24 09:00:19;;;;;;;2.45;2.25;;;26.40;56.10;;;;;;5028050;28;20071;-59
2022/08/24 09:02:51;;;;;;;4.55;2.38;;;26.40;56.10;;;;;;5047100;28;20032;-59
2022/08/24 09:05:44;;;;;;;3.28;2.85;;;26.50;55.80;;;;;;5050239;28;20032;-58
2022/08/24 09:08:28;;;;;;;3.45;2.63;;;26.60;55.30;;;;;;5046157;28;20025;-60
2022/08/24 09:11:05;;;;;;;3.83;2.95;;;26.60;55.40;;;;;;5050349;28;20020;-59
2022/08/24 09:13:37;;;;;;;2.80;2.58;;;26.60;55.10;;;;;;5048963;28;20496;-58
2022/08/24 09:16:23;;;;;;;4.15;2.35;;;26.70;54.90;;;;;;5053442;28;20120;-58
2022/08/24 09:19:07;;;;;;;3.78;2.58;;;26.80;54.80;;;;;;5051374;28;20457;-59
2022/08/24 09:21:39;;;;;;;3.13;2.33;;;26.80;55.10;;;;;;5039662;28;20080;-60
2022/08/24 09:24:49;;;;;;;3.50;1.90;;;26.80;55.40;;;;;;5050595;28;20100;-59
2022/08/24 09:27:20;;;;;;;4.18;2.70;;;26.80;55.40;;;;;;5053393;28;20020;-60
2022/08/24 09:30:06;;;;;;;5.05;2.40;;;26.80;55.30;;;;;;5051435;28;20106;-58
2022/08/24 09:32:56;;;;;;;3.15;2.33;;;26.90;55.50;;;;;;5050265;28;20086;-60
2022/08/24 09:35:33;;;;;;;2.63;2.28;;;26.80;55.30;;;;;;5042846;28;20397;-59
2022/08/24 09:38:04;;;;;;;5.22;2.10;;;26.90;55.30;;;;;;5049030;28;20025;-60
2022/08/24 09:40:38;;;;;;;;;;;26.90;55.20;;;;;;5052970;28;20029;-59
2022/08/24 09:43:31;;;;;;;4.85;2.10;;;26.90;54.90;;;;;;5051693;28;19908;-59
2022/08/24 09:46:07;;;;;;;4.03;2.28;;;26.90;55.50;;;;;;5050427;28;20116;-58
2022/08/24 09:48:41;;;;;;;4.15;2.40;;;26.90;55.70;;;;;;5051488;28;20033;-58
2022/08/24 09:51:30;;;;;;;4.13;2.55;;;26.90;56.00;;;;;;5042323;28;20032;-61
2022/08/24 09:54:33;;;;;;;3.58;2.20;;;26.90;56.00;;;;;;5048779;28;20043;-58
2022/08/24 09:57:35;;;;;;;2.90;1.88;;;26.90;55.70;;;;;;5049857;28;20067;-59
2022/08/24 10:00:33;;;;;;;1.85;1.73;;;26.80;56.00;;;;;;5044723;28;20051;-59
2022/08/24 10:03:01;;;;;;;2.97;2.22;;;26.80;56.00;;;;;;5047105;28;20090;-58
2022/08/24 10:05:53;;;;;;;2.22;2.03;;;26.80;56.00;;;;;;5047997;28;20025;-60
2022/08/24 10:08:33;;;;;;;4.03;2.38;;;26.80;55.60;;;;;;5046382;28;20476;-59
2022/08/24 10:11:21;;;;;;;4.10;2.17;;;26.80;55.60;;;;;;5047350;28;20025;-58
2022/08/24 10:14:28;;;;;;;2.92;2.58;;;26.80;55.60;;;;;;5051463;28;20079;-59
2022/08/24 10:17:11;;;;;;;3.17;2.40;;;26.90;55.70;;;;;;5036538;28;20029;-60
2022/08/24 10:20:05;;;;;;;2.53;2.15;;;26.90;56.30;;;;;;5048070;28;20041;-60
2022/08/24 10:23:29;;;;;;;2.20;1.95;;;26.80;55.50;;;;;;5045954;28;20072;-59
2022/08/24 10:26:03;;;;;;;4.53;2.88;;;26.90;55.30;;;;;;4993447;28;20049;-59
2022/08/24 10:28:59;;;;;;;2.75;2.30;;;26.90;55.50;;;;;;5039994;28;20492;-58
2022/08/24 10:31:47;;;;;;;2.38;2.17;;;26.90;55.80;;;;;;5045464;28;20496;-59
2022/08/24 10:34:34;;;;;;;3.55;2.58;;;26.90;56.10;;;;;;5025349;28;20067;-57
2022/08/24 10:37:05;;;;;;;2.53;2.00;;;26.90;56.30;;;;;;5042449;28;20037;-58
2022/08/24 10:39:56;;;;;;;3.35;2.30;;;26.90;55.70;;;;;;5044928;28;20043;-59
2022/08/24 10:45:59;;;;;;;2.78;2.13;;;26.80;55.50;;;;;;5029291;28;19987;-59
2022/08/24 10:48:31;;;;;;;3.55;2.38;;;26.80;56.10;;;;;;5044639;28;20063;-61
2022/08/24 10:51:20;;;;;;;3.05;2.17;;;26.90;56.60;;;;;;5045293;28;20361;-57
2022/08/24 10:53:49;;;;;;;2.22;2.03;;;26.80;56.80;;;;;;5042254;28;20067;-58
2022/08/24 10:56:18;;;;;;;2.97;2.22;;;26.80;56.80;;;;;;5042579;28;20041;-58
2022/08/24 10:58:56;;;;;;;2.42;2.03;;;26.80;56.80;;;;;;5044928;28;20036;-58
2022/08/24 11:01:32;;;;;;;4.25;2.22;;;26.80;56.80;;;;;;5038907;28;20472;-60
2022/08/24 11:04:00;;;;;;;2.58;2.13;;;26.80;57.10;;;;;;5042450;28;20112;-58
2022/08/24 11:06:31;;;;;;;2.80;2.15;;;26.80;57.30;;;;;;5047461;28;20045;-60
2022/08/24 11:09:04;;;;;;;2.70;2.15;;;26.80;57.20;;;;;;5047420;28;20072;-58
2022/08/24 11:11:39;;;;;;;2.53;2.33;;;26.80;56.80;;;;;;5042942;28;20025;-59
2022/08/24 11:14:23;;;;;;;2.90;2.22;;;26.80;56.80;;;;;;5041995;28;20143;-59
2022/08/24 11:16:49;;;;;;;3.60;2.42;;;26.80;56.80;;;;;;5045255;28;20664;-58
2022/08/24 11:19:27;;;;;;;2.42;2.15;;;26.70;56.60;;;;;;5044543;28;20078;-61
2022/08/24 11:21:56;;;;;;;2.05;1.63;;;26.70;56.80;;;;;;5044624;28;20435;-58
2022/08/24 11:24:23;;;;;;;2.40;2.00;;;26.70;57.10;;;;;;5043122;28;20063;-58
2022/08/24 11:27:21;;;;;;;2.50;2.00;;;26.80;57.60;;;;;;5048182;28;20465;-60
2022/08/24 11:29:53;;;;;;;2.55;2.00;;;26.70;57.70;;;;;;5033214;28;20068;-59
2022/08/24 11:32:24;;;;;;;2.83;1.83;;;26.80;57.50;;;;;;5043947;28;20021;-62
2022/08/24 11:34:50;;;;;;;1.85;1.63;;;26.70;57.60;;;;;;5045792;28;20045;-58
2022/08/24 11:37:20;;;;;;;3.25;2.13;;;26.70;57.70;;;;;;5046384;28;20118;-58
2022/08/24 11:39:46;;;;;;;2.10;1.90;;;26.70;57.60;;;;;;5049724;28;20029;-58
2022/08/24 11:42:38;;;;;;;2.30;2.03;;;26.70;57.60;;;;;;5046044;28;20044;-59
2022/08/24 11:45:11;;;;;;;2.33;1.90;;;26.70;57.80;;;;;;5047120;28;20052;-60
2022/08/24 11:48:06;;;;;;;2.28;1.85;;;26.70;57.70;;;;;;5047224;28;20063;-59
2022/08/24 11:50:39;;;;;;;3.00;2.22;;;26.70;57.50;;;;;;5042229;28;20107;-60
2022/08/24 11:53:56;;;;;;;2.85;1.90;;;26.70;57.40;;;;;;5043700;28;20104;-59
2022/08/24 11:56:31;;;;;;;2.20;2.00;;;26.70;57.30;;;;;;5046181;28;20078;-58
2022/08/24 11:59:14;;;;;;;1.98;1.73;;;26.70;57.10;;;;;;5045034;28;20040;-58
2022/08/24 12:01:45;;;;;;;3.20;2.10;;;26.70;57.10;;;;;;5043149;28;20124;-60
2022/08/24 12:04:17;;;;;;;2.00;1.80;;;26.80;57.20;;;;;;5040548;28;20040;-61
2022/08/24 12:07:11;;;;;;;1.83;1.73;;;26.80;57.50;;;;;;5043407;28;20025;-60
2022/08/24 12:10:11;;;;;;;1.95;1.85;;;26.80;57.70;;;;;;5003825;28;20065;-59
2022/08/24 12:13:02;;;;;;;2.20;2.10;;;26.80;57.80;;;;;;5043679;28;20489;-59
2022/08/24 12:15:57;;;;;;;;;;;26.90;57.50;;;;;;5044502;28;20021;-59
2022/08/24 12:18:39;;;;;;;2.35;1.73;;;26.90;57.10;;;;;;5013153;28;19924;-61
2022/08/24 12:21:07;;;;;;;2.03;1.80;;;27.00;57.20;;;;;;5044128;28;20036;-60
2022/08/24 12:23:38;;;;;;;1.85;1.70;;;27.00;57.10;;;;;;5025567;28;20099;-58
2022/08/24 12:26:10;;;;;;;1.92;1.83;;;27.10;57.30;;;;;;5047515;28;20065;-61
2022/08/24 12:29:00;;;;;;;1.80;1.70;;;27.10;57.30;;;;;;5049373;28;20126;-56
2022/08/24 12:32:01;;;;;;;2.72;1.88;;;27.20;57.60;;;;;;5038989;28;20417;-58
2022/08/24 12:34:59;;;;;;;2.13;1.70;;;27.20;57.80;;;;;;5030698;28;20033;-57
2022/08/24 12:37:34;;;;;;;2.55;1.55;;;27.20;58.20;;;;;;5037909;28;20432;-58
2022/08/24 12:40:00;;;;;;;1.83;1.67;;;27.30;57.70;;;;;;5046373;28;20574;-60
2022/08/24 12:42:36;;;;;;;3.85;2.40;;;27.30;57.40;;;;;;5049003;28;20064;-61
2022/08/24 12:45:10;;;;;;;1.48;1.38;;;27.30;57.50;;;;;;5047969;28;20028;-59
2022/08/24 12:47:58;;;;;;;2.25;1.38;;;27.30;57.70;;;;;;5026508;28;20033;-60
2022/08/24 12:50:39;;;;;;;2.22;1.90;;;27.30;57.40;;;;;;5043829;28;20025;-61
2022/08/24 12:53:22;;;;;;;2.03;1.42;;;27.40;57.40;;;;;;5036047;28;20029;-60
2022/08/24 12:55:54;;;;;;;1.50;1.40;;;27.40;57.10;;;;;;5046968;28;20086;-61
2022/08/24 12:58:52;;;;;;;1.50;1.40;;;27.40;57.00;;;;;;5044524;28;20029;-60
2022/08/24 13:01:20;;;;;;;1.92;1.20;;;27.40;56.90;;;;;;5048146;28;20028;-59
2022/08/24 13:04:02;;;;;;;1.58;1.30;;;27.50;57.20;;;;;;5022654;28;20029;-60
2022/08/24 13:06:50;;;;;;;2.15;1.38;;;27.50;56.90;;;;;;5045296;28;20036;-61
2022/08/24 13:09:39;;;;;;;2.03;1.75;;;27.50;56.40;;;;;;5044978;28;20550;-61
2022/08/24 13:12:32;;;;;;;2.03;1.10;;;27.50;55.80;;;;;;5041795;28;20061;-62
2022/08/24 13:15:24;;;;;;;3.33;1.33;;;27.60;55.80;;;;;;5027122;28;20274;-61
2022/08/24 13:18:16;;;;;;;1.92;1.40;;;27.60;55.60;;;;;;5038821;28;20042;-60
2022/08/24 13:20:42;;;;;;;2.50;1.27;;;27.70;55.20;;;;;;5013518;28;20512;-59
2022/08/24 13:23:17;;;;;;;1.98;1.30;;;27.70;55.30;;;;;;5046330;28;20041;-61
2022/08/24 13:25:46;;;;;;;3.15;1.27;;;27.70;55.40;;;;;;5041162;28;20029;-58